createdAt,value
2018-06-13T00:01:00.115Z,9.07
2018-06-13T00:03:28.510Z,11.57
2018-06-13T00:05:56.731Z,10.70
2018-06-13T00:08:25.144Z,9.57
2018-06-13T00:10:53.483Z,10.07
2018-06-13T00:36:15.674Z,10.20
2018-06-13T00:38:43.642Z,14.43
2018-06-13T00:41:12.314Z,9.63
2018-06-13T00:43:40.433Z,10.87
2018-06-13T00:46:08.767Z,9.77
2018-06-13T00:48:37.037Z,14.57
2018-06-13T00:51:05.266Z,9.13
2018-06-13T00:53:33.550Z,9.50
2018-06-13T00:56:13.330Z,9.30
2018-06-13T00:58:41.599Z,8.93
2018-06-13T01:01:09.968Z,10.10
2018-06-13T01:03:39.019Z,10.60
2018-06-13T01:06:07.213Z,9.53
2018-06-13T01:08:37.137Z,9.13
2018-06-13T01:11:05.656Z,7.40
2018-06-13T01:13:33.874Z,10.43
2018-06-13T01:16:02.075Z,8.63
2018-06-13T01:18:30.310Z,9.87
2018-06-13T01:20:58.557Z,9.30
2018-06-13T01:23:26.785Z,10.17
2018-06-13T01:25:55.240Z,11.80
2018-06-13T01:28:23.456Z,9.13
2018-06-13T01:30:51.766Z,9.27
2018-06-13T01:33:19.990Z,10.77
2018-06-13T01:35:48.032Z,10.30
2018-06-13T01:38:16.336Z,15.33
2018-06-13T01:40:44.538Z,8.37
2018-06-13T01:43:12.770Z,10.87
2018-06-13T01:45:41.230Z,8.10
2018-06-13T01:48:09.521Z,14.30
2018-06-13T01:50:37.846Z,9.90
2018-06-13T01:53:06.034Z,11.67
2018-06-13T01:55:34.249Z,10.40
2018-06-13T01:58:02.729Z,10.57
2018-06-13T02:00:30.915Z,7.97
2018-06-13T02:02:59.125Z,8.23
2018-06-13T02:05:27.410Z,8.30
2018-06-13T02:07:55.686Z,9.37
2018-06-13T02:10:23.909Z,6.77
2018-06-13T02:12:52.177Z,11.63
2018-06-13T02:15:20.397Z,9.90
2018-06-13T02:17:48.650Z,9.10
2018-06-13T02:20:16.693Z,11.13
2018-06-13T02:22:44.937Z,8.50
2018-06-13T02:25:13.167Z,8.17
2018-06-13T02:27:41.144Z,9.73
2018-06-13T02:30:09.619Z,10.50
2018-06-13T02:32:40.835Z,9.00
2018-06-13T02:35:09.254Z,11.73
2018-06-13T02:37:37.460Z,9.77
2018-06-13T02:40:05.985Z,11.87
2018-06-13T02:42:34.225Z,9.40
2018-06-13T02:45:02.626Z,12.17
2018-06-13T02:47:30.920Z,10.33
2018-06-13T02:49:59.093Z,10.40
2018-06-13T02:52:27.409Z,10.23
2018-06-13T02:54:55.790Z,8.27
2018-06-13T02:57:24.042Z,9.17
2018-06-13T02:59:52.267Z,10.37
2018-06-13T03:02:20.463Z,9.53
2018-06-13T03:04:48.694Z,8.23
2018-06-13T03:07:17.277Z,8.70
2018-06-13T03:09:45.506Z,10.13
2018-06-13T03:12:13.768Z,9.70
2018-06-13T03:14:41.983Z,8.40
2018-06-13T03:17:10.377Z,12.03
2018-06-13T03:19:38.625Z,10.37
2018-06-13T03:22:06.865Z,13.60
2018-06-13T03:24:35.128Z,9.83
2018-06-13T03:27:03.882Z,8.37
2018-06-13T03:29:32.746Z,9.93
2018-06-13T03:32:02.132Z,8.60
2018-06-13T03:34:30.301Z,9.53
2018-06-13T03:36:58.520Z,9.13
2018-06-13T03:39:26.885Z,9.97
2018-06-13T03:41:56.148Z,9.97
2018-06-13T03:44:24.949Z,7.87
2018-06-13T03:46:53.146Z,10.23
2018-06-13T03:49:21.392Z,14.13
2018-06-13T03:51:49.590Z,7.73
2018-06-13T03:54:18.394Z,13.67
2018-06-13T03:56:46.969Z,10.20
2018-06-13T03:59:15.174Z,12.70
2018-06-13T04:01:43.419Z,9.33
2018-06-13T04:04:11.628Z,10.47
2018-06-13T04:06:40.095Z,10.63
2018-06-13T04:09:08.323Z,8.60
2018-06-13T04:11:36.547Z,12.97
2018-06-13T04:14:04.509Z,8.87
2018-06-13T04:16:32.762Z,9.13
2018-06-13T04:19:00.998Z,8.40
2018-06-13T04:21:29.426Z,11.40
2018-06-13T04:23:57.634Z,12.07
2018-06-13T04:26:25.869Z,7.47
2018-06-13T04:28:54.799Z,8.27
2018-06-13T04:31:23.002Z,8.37
2018-06-13T04:33:51.286Z,9.87
2018-06-13T04:36:19.478Z,10.20
2018-06-13T04:38:48.401Z,7.63
2018-06-13T04:41:16.453Z,9.80
2018-06-13T04:43:44.733Z,7.87
2018-06-13T04:46:12.950Z,9.93
2018-06-13T04:48:41.394Z,10.67
2018-06-13T04:51:09.626Z,8.00
2018-06-13T04:53:37.829Z,11.70
2018-06-13T04:56:06.052Z,9.43
2018-06-13T04:58:34.365Z,7.17
2018-06-13T05:01:02.706Z,11.63
2018-06-13T05:03:30.986Z,8.43
2018-06-13T05:05:59.251Z,11.17
2018-06-13T05:08:27.458Z,8.50
2018-06-13T05:10:55.842Z,7.03
2018-06-13T05:13:24.090Z,10.40
2018-06-13T05:15:52.084Z,13.17
2018-06-13T05:18:20.883Z,7.93
2018-06-13T05:20:49.095Z,7.70
2018-06-13T05:23:17.304Z,7.27
2018-06-13T05:25:45.500Z,6.53
2018-06-13T05:28:13.818Z,8.80
2018-06-13T05:30:42.081Z,5.70
2018-06-13T05:33:10.374Z,10.00
2018-06-13T05:35:38.561Z,7.97
2018-06-13T05:38:06.765Z,5.77
2018-06-13T05:40:34.737Z,9.47
2018-06-13T05:43:03.638Z,6.30
2018-06-13T05:45:31.830Z,5.97
2018-06-13T05:48:00.347Z,10.10
2018-06-13T05:50:28.550Z,7.67
2018-06-13T05:52:56.867Z,8.40
2018-06-13T05:55:25.125Z,8.67
2018-06-13T05:57:56.849Z,7.10
2018-06-13T06:00:25.121Z,8.23
2018-06-13T06:02:53.354Z,11.53
2018-06-13T06:05:21.559Z,8.00
2018-06-13T06:07:49.770Z,8.93
2018-06-13T06:10:18.203Z,6.33
2018-06-13T06:12:46.354Z,7.10
2018-06-13T06:15:14.571Z,7.17
2018-06-13T06:17:42.756Z,8.33
2018-06-13T06:20:11.061Z,6.17
2018-06-13T06:22:39.341Z,7.53
2018-06-13T06:25:07.547Z,8.23
2018-06-13T06:27:35.761Z,8.00
2018-06-13T06:30:04.031Z,8.30
2018-06-13T06:32:32.281Z,6.20
2018-06-13T06:35:00.473Z,7.17
2018-06-13T06:37:28.690Z,6.47
2018-06-13T06:39:56.889Z,8.33
2018-06-13T06:42:25.185Z,6.53
2018-06-13T06:44:53.398Z,10.37
2018-06-13T06:47:21.598Z,11.17
2018-06-13T06:49:49.838Z,10.13
2018-06-13T06:52:18.525Z,9.33
2018-06-13T06:54:46.987Z,11.47
2018-06-13T06:57:15.211Z,8.40
2018-06-13T06:59:43.421Z,10.97
2018-06-13T07:02:11.649Z,12.23
2018-06-13T07:04:40.030Z,8.70
2018-06-13T07:07:08.294Z,8.40
2018-06-13T07:09:36.497Z,9.93
2018-06-13T07:12:04.693Z,10.20
2018-06-13T07:14:32.999Z,11.83
2018-06-13T07:17:01.503Z,10.87
2018-06-13T07:19:29.685Z,11.47
2018-06-13T07:21:57.958Z,10.03
2018-06-13T07:24:26.262Z,13.37
2018-06-13T07:26:54.521Z,10.57
2018-06-13T07:29:22.744Z,13.80
2018-06-13T07:31:50.949Z,14.93
2018-06-13T07:34:20.180Z,9.17
2018-06-13T07:36:48.429Z,13.23
2018-06-13T07:39:16.715Z,10.07
2018-06-13T07:41:44.927Z,14.10
2018-06-13T07:44:13.118Z,11.77
2018-06-13T07:46:42.359Z,14.20
2018-06-13T07:49:10.676Z,12.00
2018-06-13T07:51:39.615Z,8.77
2018-06-13T07:54:07.830Z,11.80
2018-06-13T07:56:36.124Z,15.00
2018-06-13T07:59:04.325Z,10.57
2018-06-13T08:01:32.681Z,8.60
2018-06-13T08:04:00.906Z,9.63
2018-06-13T08:06:29.463Z,9.10
2018-06-13T08:08:57.725Z,13.93
2018-06-13T08:11:25.958Z,12.77
2018-06-13T08:13:54.252Z,11.07
2018-06-13T08:16:22.489Z,11.73
2018-06-13T08:18:51.213Z,8.93
2018-06-13T08:21:19.489Z,7.37
2018-06-13T08:23:47.886Z,7.00
2018-06-13T08:26:15.865Z,9.87
2018-06-13T08:28:43.920Z,6.97
2018-06-13T08:31:12.410Z,8.57
2018-06-13T08:33:40.938Z,6.30
2018-06-13T08:36:09.141Z,6.60
2018-06-13T08:38:37.361Z,8.20
2018-06-13T08:41:05.595Z,9.70
2018-06-13T08:43:34.950Z,8.47
2018-06-13T08:46:03.397Z,6.43
2018-06-13T08:48:31.814Z,8.87
2018-06-13T08:51:00.018Z,7.10
2018-06-13T08:53:28.210Z,5.23
2018-06-13T08:55:56.585Z,7.90
2018-06-13T08:58:24.885Z,7.63
2018-06-13T09:00:53.110Z,5.10
2018-06-13T09:03:21.392Z,4.57
2018-06-13T09:05:49.735Z,5.53
2018-06-13T09:08:17.990Z,7.10
2018-06-13T09:10:46.295Z,5.20
2018-06-13T09:13:14.538Z,7.33
2018-06-13T09:15:42.723Z,5.20
2018-06-13T09:18:11.289Z,5.97
2018-06-13T09:20:39.576Z,5.77
2018-06-13T09:23:07.794Z,7.50
2018-06-13T09:25:36.075Z,6.33
2018-06-13T09:28:04.406Z,6.97
2018-06-13T09:30:33.605Z,5.87
2018-06-13T09:33:01.931Z,5.47
2018-06-13T09:35:30.169Z,8.23
2018-06-13T09:37:58.502Z,4.87
2018-06-13T09:40:27.746Z,5.20
2018-06-13T09:42:56.350Z,5.03
2018-06-13T09:45:24.635Z,4.20
2018-06-13T09:47:53.558Z,5.33
2018-06-13T09:50:21.765Z,4.47
2018-06-13T09:52:50.043Z,4.80
2018-06-13T09:55:18.781Z,5.03
2018-06-13T09:57:47.130Z,6.47
2018-06-13T10:00:20.718Z,5.53
2018-06-13T10:02:49.170Z,6.33
2018-06-13T10:05:17.394Z,8.63
2018-06-13T10:07:45.750Z,5.43
2018-06-13T10:10:15.045Z,7.27
2018-06-13T10:12:43.264Z,7.03
2018-06-13T10:15:11.541Z,6.60
2018-06-13T10:17:39.782Z,5.50
2018-06-13T10:20:07.998Z,4.57
2018-06-13T10:22:36.338Z,5.50
2018-06-13T10:25:04.550Z,4.20
2018-06-13T10:27:39.078Z,4.17
2018-06-13T10:30:07.314Z,5.13
2018-06-13T10:32:35.264Z,6.53
2018-06-13T10:35:03.820Z,5.93
2018-06-13T10:37:32.117Z,7.23
2018-06-13T10:40:00.373Z,6.63
2018-06-13T10:42:28.548Z,4.80
2018-06-13T10:44:56.789Z,6.27
2018-06-13T10:47:25.052Z,4.27
2018-06-13T10:49:53.267Z,5.03
2018-06-13T10:52:21.451Z,5.23
2018-06-13T10:54:49.777Z,5.33
2018-06-13T10:57:18.994Z,9.17
2018-06-13T10:59:47.268Z,6.23
2018-06-13T11:02:15.561Z,6.30
2018-06-13T11:04:43.803Z,6.13
2018-06-13T11:07:12.068Z,5.73
2018-06-13T11:09:40.543Z,5.33
2018-06-13T11:12:08.763Z,4.50
2018-06-13T11:14:36.981Z,4.83
2018-06-13T11:17:05.269Z,7.03
2018-06-13T11:19:33.616Z,4.53
2018-06-13T11:22:02.514Z,4.00
2018-06-13T11:24:30.825Z,4.67
2018-06-13T11:26:59.106Z,5.73
2018-06-13T11:29:27.306Z,4.87
2018-06-13T11:31:55.663Z,5.43
2018-06-13T11:34:24.073Z,3.90
2018-06-13T11:36:52.746Z,5.87
2018-06-13T11:39:20.952Z,5.03
2018-06-13T11:41:49.542Z,6.70
2018-06-13T11:44:17.887Z,4.03
2018-06-13T11:46:46.126Z,5.53
2018-06-13T11:49:14.322Z,4.73
2018-06-13T11:51:42.562Z,5.50
2018-06-13T11:54:11.314Z,6.30
2018-06-13T11:56:39.651Z,4.87
2018-06-13T11:59:07.858Z,7.60
2018-06-13T12:01:36.071Z,6.27
2018-06-13T12:04:04.308Z,6.17
2018-06-13T12:06:32.630Z,6.07
2018-06-13T12:09:00.909Z,4.80
2018-06-13T12:11:29.168Z,5.80
2018-06-13T12:13:57.358Z,6.87
2018-06-13T12:16:25.654Z,6.50
2018-06-13T12:18:54.260Z,8.33
2018-06-13T12:21:22.517Z,3.93
2018-06-13T12:23:50.736Z,5.10
2018-06-13T12:26:19.329Z,4.20
2018-06-13T12:28:47.657Z,4.13
2018-06-13T12:31:15.842Z,5.70
2018-06-13T12:33:44.064Z,4.40
2018-06-13T12:36:12.270Z,6.67
2018-06-13T12:38:41.202Z,5.30
2018-06-13T12:41:10.087Z,4.13
2018-06-13T12:43:38.293Z,6.17
2018-06-13T12:46:06.518Z,4.53
2018-06-13T12:48:34.749Z,7.03
2018-06-13T12:51:03.996Z,6.20
2018-06-13T12:53:32.237Z,5.50
2018-06-13T12:56:00.514Z,8.13
2018-06-13T12:58:28.674Z,4.67
2018-06-13T13:00:56.889Z,3.93
2018-06-13T13:03:25.127Z,6.13
2018-06-13T13:05:53.446Z,5.00
2018-06-13T13:08:21.661Z,4.30
2018-06-13T13:10:49.862Z,4.53
2018-06-13T13:13:18.905Z,5.07
2018-06-13T13:15:47.514Z,4.33
2018-06-13T13:18:15.703Z,4.30
2018-06-13T13:20:43.908Z,4.47
2018-06-13T13:23:12.095Z,4.73
2018-06-13T13:25:41.205Z,6.13
2018-06-13T13:28:10.171Z,7.00
2018-06-13T13:30:38.362Z,4.37
2018-06-13T13:33:06.572Z,4.00
2018-06-13T13:35:34.804Z,3.20
2018-06-13T13:38:03.217Z,3.93
2018-06-13T13:40:31.433Z,4.07
2018-06-13T13:42:59.642Z,6.53
2018-06-13T13:45:27.924Z,3.13
2018-06-13T13:49:22.805Z,5.33
2018-06-13T13:51:51.044Z,4.30
2018-06-13T13:54:20.270Z,3.13
2018-06-13T13:56:48.699Z,2.80
2018-06-13T13:59:16.996Z,9.77
2018-06-13T14:01:45.241Z,3.87
2018-06-13T14:04:13.478Z,6.57
2018-06-13T14:06:41.702Z,4.53
2018-06-13T14:09:11.357Z,2.93
2018-06-13T14:11:39.855Z,5.20
2018-06-13T14:14:08.162Z,3.37
2018-06-13T14:16:36.698Z,2.67
2018-06-13T14:19:04.933Z,3.53
2018-06-13T14:21:33.851Z,3.63
2018-06-13T14:24:02.551Z,2.50
2018-06-13T14:26:30.837Z,4.43
2018-06-13T14:28:59.149Z,5.60
2018-06-13T14:31:27.394Z,3.57
2018-06-13T14:33:55.946Z,3.47
2018-06-13T14:36:24.001Z,4.30
2018-06-13T14:38:52.234Z,3.97
2018-06-13T14:41:20.454Z,4.63
2018-06-13T14:43:48.862Z,4.97
2018-06-13T14:46:18.417Z,6.10
2018-06-13T14:48:47.486Z,3.37
2018-06-13T14:51:15.728Z,4.07
2018-06-13T14:53:43.954Z,4.63
2018-06-13T14:56:17.686Z,3.30
2018-06-13T14:58:45.937Z,5.23
2018-06-13T15:01:14.170Z,2.87
2018-06-13T15:03:42.372Z,7.33
2018-06-13T15:06:11.462Z,2.80
2018-06-13T15:08:39.773Z,3.13
2018-06-13T15:11:08.483Z,2.53
2018-06-13T15:13:36.719Z,3.10
2018-06-13T15:16:05.478Z,3.00
2018-06-13T15:18:33.800Z,4.87
2018-06-13T15:21:02.150Z,5.40
2018-06-13T15:23:30.401Z,3.60
2018-06-13T15:25:58.400Z,3.83
2018-06-13T15:28:27.253Z,4.10
2018-06-13T15:30:55.720Z,2.50
2018-06-13T15:33:24.266Z,4.03
2018-06-13T15:35:52.497Z,3.43
2018-06-13T15:38:20.705Z,5.27
2018-06-13T15:40:49.043Z,3.50
2018-06-13T15:43:17.663Z,3.37
2018-06-13T15:45:46.006Z,2.70
2018-06-13T15:48:14.226Z,3.30
2018-06-13T15:50:42.430Z,4.43
2018-06-13T15:53:10.845Z,3.57
2018-06-13T15:55:39.121Z,2.70
2018-06-13T15:58:07.322Z,3.57
2018-06-13T16:00:35.616Z,3.67
2018-06-13T16:03:04.042Z,5.63
2018-06-13T16:05:32.857Z,2.97
2018-06-13T16:08:01.019Z,3.50
2018-06-13T16:10:29.543Z,6.23
2018-06-13T16:12:57.751Z,2.53
2018-06-13T16:15:26.046Z,4.97
2018-06-13T16:17:54.611Z,3.87
2018-06-13T16:20:22.842Z,4.40
2018-06-13T16:22:51.269Z,3.20
2018-06-13T16:25:19.695Z,2.27
2018-06-13T16:27:48.437Z,2.00
2018-06-13T16:30:17.575Z,2.00
2018-06-13T16:32:46.300Z,4.57
2018-06-13T16:35:14.578Z,4.23
2018-06-13T16:37:42.890Z,5.43
2018-06-13T16:40:11.166Z,2.00
2018-06-13T16:42:39.939Z,2.57
2018-06-13T16:45:08.175Z,4.27
2018-06-13T16:47:36.401Z,2.20
2018-06-13T16:50:16.966Z,3.53
2018-06-13T16:55:18.854Z,4.90
2018-06-13T16:57:47.860Z,3.23
2018-06-13T17:00:16.284Z,5.10
2018-06-13T17:02:44.530Z,2.63
2018-06-13T17:05:13.300Z,3.00
2018-06-13T17:08:06.547Z,2.90
2018-06-13T17:10:44.915Z,5.70
2018-06-13T17:13:25.670Z,2.87
2018-06-13T17:16:16.079Z,4.30
2018-06-13T17:19:04.649Z,1.97
2018-06-13T17:21:45.909Z,3.13
2018-06-13T17:24:14.262Z,1.80
2018-06-13T17:26:42.874Z,2.77
2018-06-13T17:29:11.751Z,5.63
2018-06-13T17:31:39.902Z,3.13
2018-06-13T17:34:08.121Z,2.57
2018-06-13T17:36:36.370Z,2.43
2018-06-13T17:39:07.211Z,3.03
2018-06-13T17:41:35.454Z,4.80
2018-06-13T17:44:04.786Z,5.17
2018-06-13T17:46:33.295Z,3.73
2018-06-13T17:49:01.517Z,7.07
2018-06-13T17:51:29.742Z,3.10
2018-06-13T17:53:57.980Z,2.50
2018-06-13T17:56:27.577Z,1.70
2018-06-13T17:58:56.851Z,1.93
2018-06-13T18:01:26.204Z,2.03
2018-06-13T18:03:54.836Z,3.67
2018-06-13T18:06:23.278Z,3.10
2018-06-13T18:08:51.696Z,3.13
2018-06-13T18:11:20.781Z,2.00
2018-06-13T18:13:49.570Z,2.13
2018-06-13T18:16:17.962Z,3.10
2018-06-13T18:18:46.192Z,3.60
2018-06-13T18:21:14.206Z,4.63
2018-06-13T18:23:42.446Z,2.53
2018-06-13T18:26:10.830Z,2.77
2018-06-13T18:28:40.449Z,3.10
2018-06-13T18:31:08.634Z,3.00
2018-06-13T18:33:36.697Z,3.57
2018-06-13T18:36:05.245Z,5.23
2018-06-13T18:38:33.670Z,2.30
2018-06-13T18:41:02.007Z,5.67
2018-06-13T18:43:30.348Z,2.93
2018-06-13T18:45:58.622Z,3.27
2018-06-13T18:48:26.926Z,3.47
2018-06-13T18:50:55.184Z,5.57
2018-06-13T18:53:25.931Z,3.67
2018-06-13T18:55:56.077Z,3.33
2018-06-13T18:58:24.072Z,2.27
2018-06-13T19:00:52.426Z,4.23
2018-06-13T19:03:20.883Z,5.83
2018-06-13T19:05:49.651Z,3.00
2018-06-13T19:08:18.237Z,2.43
2018-06-13T19:10:46.502Z,2.07
2018-06-13T19:13:14.913Z,3.17
2018-06-13T19:15:43.137Z,4.10
2018-06-13T19:18:11.419Z,2.40
2018-06-13T19:20:39.749Z,2.50
2018-06-13T19:23:07.939Z,3.77
2018-06-13T19:25:36.186Z,3.17
2018-06-13T19:28:04.739Z,2.13
2018-06-13T19:30:33.251Z,4.77
2018-06-13T19:33:01.531Z,5.07
2018-06-13T19:35:29.878Z,4.20
2018-06-13T19:37:58.234Z,3.00
2018-06-13T19:40:26.811Z,3.60
2018-06-13T19:42:55.374Z,4.17
2018-06-13T19:45:23.690Z,4.37
2018-06-13T19:47:57.239Z,5.67
2018-06-13T19:50:25.571Z,3.13
2018-06-13T19:52:59.266Z,4.00
2018-06-13T19:55:33.982Z,3.50
2018-06-13T19:58:03.227Z,3.30
2018-06-13T20:00:32.548Z,3.13
2018-06-13T20:03:06.686Z,3.43
2018-06-13T20:05:40.147Z,4.97
2018-06-13T20:08:08.367Z,2.57
2018-06-13T20:10:36.675Z,4.87
2018-06-13T20:13:11.025Z,4.10
2018-06-13T20:15:44.765Z,2.67
2018-06-13T20:18:18.652Z,3.80
2018-06-13T20:20:48.865Z,2.87
2018-06-13T20:23:23.842Z,2.20
2018-06-13T20:25:57.531Z,3.77
2018-06-13T20:28:31.271Z,4.17
2018-06-13T20:31:05.044Z,2.50
2018-06-13T20:33:34.010Z,2.13
2018-06-13T20:36:02.434Z,3.57
2018-06-13T20:38:30.991Z,4.73
2018-06-13T20:40:59.278Z,2.57
2018-06-13T20:43:27.721Z,2.93
2018-06-13T20:45:56.240Z,3.70
2018-06-13T20:48:26.335Z,5.37
2018-06-13T20:50:54.513Z,2.87
2018-06-13T20:53:22.794Z,3.03
2018-06-13T20:55:55.447Z,3.63
2018-06-13T20:58:24.172Z,3.10
2018-06-13T21:00:52.550Z,4.10
2018-06-13T21:03:22.569Z,4.10
2018-06-13T21:05:50.867Z,3.13
2018-06-13T21:08:20.438Z,3.03
2018-06-13T21:11:07.314Z,4.67
2018-06-13T21:13:37.473Z,4.40
2018-06-13T21:16:07.047Z,3.73
2018-06-13T21:18:35.449Z,3.60
2018-06-13T21:21:04.494Z,4.43
2018-06-13T21:23:32.963Z,2.50
2018-06-13T21:26:01.558Z,3.00
2018-06-13T21:28:30.008Z,3.27
2018-06-13T21:30:58.448Z,2.83
2018-06-13T21:33:26.986Z,4.10
2018-06-13T21:35:55.396Z,4.30
2018-06-13T21:38:23.891Z,2.07
2018-06-13T21:40:52.229Z,5.30
2018-06-13T21:43:20.513Z,3.03
2018-06-13T21:45:49.299Z,3.40
2018-06-13T21:48:18.305Z,2.57
2018-06-13T21:50:47.941Z,4.97
2018-06-13T21:53:16.166Z,4.97
2018-06-13T21:55:44.421Z,4.17
2018-06-13T21:58:12.997Z,3.17
2018-06-13T22:00:41.722Z,2.40
2018-06-13T22:03:10.689Z,3.30
2018-06-13T22:05:39.098Z,3.97
2018-06-13T22:08:07.741Z,3.13
2018-06-13T22:10:36.017Z,4.33
2018-06-13T22:13:04.947Z,4.80
2018-06-13T22:15:33.362Z,3.30
2018-06-13T22:18:01.600Z,6.00
2018-06-13T22:20:30.646Z,3.80
2018-06-13T22:22:58.873Z,6.73
2018-06-13T22:25:28.493Z,2.60
2018-06-13T22:27:57.291Z,4.40
2018-06-13T22:30:26.145Z,3.77
2018-06-13T22:32:54.645Z,5.53
2018-06-13T22:35:22.950Z,2.67
2018-06-13T22:37:52.487Z,6.43
2018-06-13T22:40:20.697Z,7.77
2018-06-13T22:42:49.694Z,4.10
2018-06-13T22:45:18.089Z,6.67
2018-06-13T22:47:46.474Z,4.43
2018-06-13T22:50:14.722Z,4.40
2018-06-13T22:52:43.112Z,4.90
2018-06-13T22:55:11.564Z,3.93
2018-06-13T22:57:39.884Z,2.30
2018-06-13T23:00:08.333Z,4.07
2018-06-13T23:02:36.595Z,4.23
2018-06-13T23:05:04.926Z,3.40
2018-06-13T23:07:34.189Z,3.70
2018-06-13T23:10:03.084Z,6.37
2018-06-13T23:12:31.376Z,2.87
2018-06-13T23:14:59.612Z,2.87
2018-06-13T23:17:28.650Z,4.20
2018-06-13T23:19:56.943Z,4.13
2018-06-13T23:22:25.366Z,4.57
2018-06-13T23:24:53.654Z,5.20
2018-06-13T23:27:21.893Z,4.00
2018-06-13T23:29:50.126Z,3.77
2018-06-13T23:32:18.791Z,5.53
2018-06-13T23:34:47.225Z,2.50
2018-06-13T23:37:15.447Z,3.77
2018-06-13T23:39:43.740Z,3.97
2018-06-13T23:42:12.187Z,3.33
2018-06-13T23:44:40.710Z,3.60
2018-06-13T23:47:09.066Z,6.30
2018-06-13T23:49:37.363Z,3.03
2018-06-13T23:52:05.715Z,6.00
2018-06-13T23:54:34.170Z,5.07
2018-06-13T23:57:02.649Z,5.57
2018-06-13T23:59:30.956Z,4.97
